Praia Do Neiva — CUBL7 — position and weather

sailwx.info

Track history (hours):
 
Tides and Currents Weather Stations Pressure Air Temp Water Temp Dewpoint Dewpoint Depression Visibility Wind Speed Wind Dir Waves Ship Positions

Praia Do Neiva

Last reported at 2017-Nov-24 20:01 UTC. Time now 2017-Nov-25 05:56 UTC.
Position N 41°11' W 008°42'.

Length 16 m.

Type: Fishing. MMSI: 263214000.

Date/timePositionNaut miles runAvg speedWind from/ knotsBaromVisibWave heightAir tempDewpointWater temp
2017-Nov-24 20:01N 41°11' W 008°42'0 0.0
2017-Nov-24 20:00N 41°11' W 008°42'2 3.2
2017-Nov-24 19:30N 41°11' W 008°44'  
2017-Nov-19 21:11N 41°08' W 008°44'1 8.0
2017-Nov-19 21:00N 41°09' W 008°43'  
2017-Nov-17 15:03N 41°11' W 008°42'0 0.0
2017-Nov-17 15:00N 41°11' W 008°42'0 0.1
2017-Nov-17 14:30N 41°11' W 008°42'4 7.4
2017-Nov-17 14:00N 41°08' W 008°46'1 0.1
2017-Nov-16 20:25N 41°07' W 008°45'3 8.0
2017-Nov-16 20:00N 41°10' W 008°43'1 2.5
2017-Nov-16 19:30N 41°11' W 008°42'0 0.0
2017-Nov-16 19:00N 41°11' W 008°42'0 0.0
2017-Nov-16 18:30N 41°11' W 008°42'0 0.0
2017-Nov-16 18:00N 41°11' W 008°42'0 0.0
2017-Nov-16 17:30N 41°11' W 008°42'0 0.0
2017-Nov-16 17:00N 41°11' W 008°42'0 0.0
2017-Nov-16 16:30N 41°11' W 008°42'0 0.0
2017-Nov-16 16:00N 41°11' W 008°42'0 0.0
2017-Nov-16 15:30N 41°11' W 008°42'0 0.0
2017-Nov-16 15:00N 41°11' W 008°42'0 0.1
2017-Nov-16 14:30N 41°11' W 008°42'3 6.8
2017-Nov-16 14:00N 41°08' W 008°44'0 0.0
2017-Nov-15 19:26N 41°08' W 008°44'3 7.6
2017-Nov-15 19:00N 41°11' W 008°42'0 0.7
2017-Nov-15 18:30N 41°11' W 008°42'0 0.0
2017-Nov-15 18:00N 41°11' W 008°42'0 0.0
2017-Nov-15 17:30N 41°11' W 008°42'0 0.0
2017-Nov-15 17:00N 41°11' W 008°42'0 0.0
2017-Nov-15 16:30N 41°11' W 008°42'0 0.0
2017-Nov-15 16:00N 41°11' W 008°42'0 0.0
2017-Nov-15 15:30N 41°11' W 008°42'0 0.0
2017-Nov-15 15:00N 41°11' W 008°42'0 0.1
2017-Nov-15 14:30N 41°11' W 008°42'1 2.4
2017-Nov-15 14:00N 41°10' W 008°42'4 7.7
2017-Nov-15 13:28N 41°06' W 008°44'  
Track history (hours):
 
Tides and Currents Weather Stations Pressure Air Temp Water Temp Dewpoint Dewpoint Depression Visibility Wind Speed Wind Dir Waves Ship Positions

Praia Do Neiva

Last reported at 2017-Nov-24 20:01 UTC. Time now 2017-Nov-25 05:56 UTC.
Position N 41°11' W 008°42'.

Length 16 m.

Type: Fishing. MMSI: 263214000.

Date/timePositionNaut miles runAvg speedWind from/ knotsBaromVisibWave heightAir tempDewpointWater temp
2017-Nov-24 20:01N 41°11' W 008°42'0 0.0
2017-Nov-24 20:00N 41°11' W 008°42'2 3.2
2017-Nov-24 19:30N 41°11' W 008°44'  
2017-Nov-19 21:11N 41°08' W 008°44'1 8.0
2017-Nov-19 21:00N 41°09' W 008°43'  
2017-Nov-17 15:03N 41°11' W 008°42'0 0.0
2017-Nov-17 15:00N 41°11' W 008°42'0 0.1
2017-Nov-17 14:30N 41°11' W 008°42'4 7.4
2017-Nov-17 14:00N 41°08' W 008°46'1 0.1
2017-Nov-16 20:25N 41°07' W 008°45'3 8.0
2017-Nov-16 20:00N 41°10' W 008°43'1 2.5
2017-Nov-16 19:30N 41°11' W 008°42'0 0.0
2017-Nov-16 19:00N 41°11' W 008°42'0 0.0
2017-Nov-16 18:30N 41°11' W 008°42'0 0.0
2017-Nov-16 18:00N 41°11' W 008°42'0 0.0
2017-Nov-16 17:30N 41°11' W 008°42'0 0.0
2017-Nov-16 17:00N 41°11' W 008°42'0 0.0
2017-Nov-16 16:30N 41°11' W 008°42'0 0.0
2017-Nov-16 16:00N 41°11' W 008°42'0 0.0
2017-Nov-16 15:30N 41°11' W 008°42'0 0.0
2017-Nov-16 15:00N 41°11' W 008°42'0 0.1
2017-Nov-16 14:30N 41°11' W 008°42'3 6.8
2017-Nov-16 14:00N 41°08' W 008°44'0 0.0
2017-Nov-15 19:26N 41°08' W 008°44'3 7.6
2017-Nov-15 19:00N 41°11' W 008°42'0 0.7
2017-Nov-15 18:30N 41°11' W 008°42'0 0.0
2017-Nov-15 18:00N 41°11' W 008°42'0 0.0
2017-Nov-15 17:30N 41°11' W 008°42'0 0.0
2017-Nov-15 17:00N 41°11' W 008°42'0 0.0
2017-Nov-15 16:30N 41°11' W 008°42'0 0.0
2017-Nov-15 16:00N 41°11' W 008°42'0 0.0
2017-Nov-15 15:30N 41°11' W 008°42'0 0.0
2017-Nov-15 15:00N 41°11' W 008°42'0 0.1
2017-Nov-15 14:30N 41°11' W 008°42'1 2.4
2017-Nov-15 14:00N 41°10' W 008°42'4 7.7
2017-Nov-15 13:28N 41°06' W 008°44'  

Dump ship's entire track history